sensor_id;sensor_type;location;lat;lon;timestamp;P1;durP1;ratioP1;P2;durP2;ratioP2
2257;SDS011;1136;51.574;7.706;2023-08-30T00:01:26;10.33;;;9.53;;
2257;SDS011;1136;51.574;7.706;2023-08-30T00:03:52;10.23;;;9.33;;
2257;SDS011;1136;51.574;7.706;2023-08-30T00:06:19;17.10;;;10.00;;
2257;SDS011;1136;51.574;7.706;2023-08-30T00:08:46;9.83;;;9.00;;
2257;SDS011;1136;51.574;7.706;2023-08-30T00:11:13;10.30;;;9.40;;
2257;SDS011;1136;51.574;7.706;2023-08-30T00:13:40;10.37;;;9.00;;
2257;SDS011;1136;51.574;7.706;2023-08-30T00:16:08;11.07;;;9.77;;
2257;SDS011;1136;51.574;7.706;2023-08-30T00:18:35;9.97;;;9.07;;
2257;SDS011;1136;51.574;7.706;2023-08-30T00:21:02;10.73;;;9.73;;
2257;SDS011;1136;51.574;7.706;2023-08-30T00:23:29;9.67;;;8.87;;
2257;SDS011;1136;51.574;7.706;2023-08-30T00:25:55;10.20;;;9.20;;
2257;SDS011;1136;51.574;7.706;2023-08-30T00:28:22;9.63;;;8.83;;
2257;SDS011;1136;51.574;7.706;2023-08-30T00:30:52;9.80;;;8.97;;
2257;SDS011;1136;51.574;7.706;2023-08-30T00:33:20;10.90;;;9.73;;
2257;SDS011;1136;51.574;7.706;2023-08-30T00:35:54;11.50;;;10.50;;
2257;SDS011;1136;51.574;7.706;2023-08-30T00:38:21;10.23;;;9.33;;
2257;SDS011;1136;51.574;7.706;2023-08-30T00:40:48;10.60;;;9.80;;
2257;SDS011;1136;51.574;7.706;2023-08-30T00:43:15;10.50;;;9.70;;
2257;SDS011;1136;51.574;7.706;2023-08-30T00:45:41;10.03;;;9.10;;
2257;SDS011;1136;51.574;7.706;2023-08-30T00:48:08;9.90;;;8.90;;
2257;SDS011;1136;51.574;7.706;2023-08-30T00:50:35;10.10;;;9.20;;
2257;SDS011;1136;51.574;7.706;2023-08-30T00:53:03;9.50;;;8.53;;
2257;SDS011;1136;51.574;7.706;2023-08-30T00:55:32;11.17;;;9.80;;
2257;SDS011;1136;51.574;7.706;2023-08-30T00:58:01;11.23;;;10.00;;
2257;SDS011;1136;51.574;7.706;2023-08-30T01:00:29;11.30;;;10.33;;
2257;SDS011;1136;51.574;7.706;2023-08-30T01:02:56;10.70;;;9.70;;
2257;SDS011;1136;51.574;7.706;2023-08-30T01:05:23;11.90;;;10.70;;
2257;SDS011;1136;51.574;7.706;2023-08-30T01:07:50;11.90;;;11.00;;
2257;SDS011;1136;51.574;7.706;2023-08-30T01:10:18;11.63;;;10.73;;
2257;SDS011;1136;51.574;7.706;2023-08-30T01:12:49;12.57;;;11.67;;
2257;SDS011;1136;51.574;7.706;2023-08-30T01:15:19;14.03;;;12.73;;
2257;SDS011;1136;51.574;7.706;2023-08-30T01:17:47;13.77;;;12.37;;
2257;SDS011;1136;51.574;7.706;2023-08-30T01:20:15;14.30;;;12.90;;
2257;SDS011;1136;51.574;7.706;2023-08-30T01:25:38;15.00;;;13.40;;
2257;SDS011;1136;51.574;7.706;2023-08-30T01:28:15;14.47;;;13.10;;
2257;SDS011;1136;51.574;7.706;2023-08-30T01:30:43;14.67;;;13.33;;
2257;SDS011;1136;51.574;7.706;2023-08-30T01:33:12;14.77;;;13.57;;
2257;SDS011;1136;51.574;7.706;2023-08-30T01:35:41;18.37;;;14.03;;
2257;SDS011;1136;51.574;7.706;2023-08-30T01:38:09;14.13;;;12.73;;
2257;SDS011;1136;51.574;7.706;2023-08-30T01:40:38;14.87;;;12.83;;
2257;SDS011;1136;51.574;7.706;2023-08-30T01:43:06;15.33;;;13.73;;
2257;SDS011;1136;51.574;7.706;2023-08-30T01:45:43;14.57;;;13.27;;
2257;SDS011;1136;51.574;7.706;2023-08-30T01:48:12;16.00;;;14.40;;
2257;SDS011;1136;51.574;7.706;2023-08-30T01:50:40;17.10;;;15.10;;
2257;SDS011;1136;51.574;7.706;2023-08-30T01:53:08;16.20;;;14.60;;
2257;SDS011;1136;51.574;7.706;2023-08-30T01:55:37;15.73;;;14.07;;
2257;SDS011;1136;51.574;7.706;2023-08-30T01:58:05;15.00;;;13.13;;
2257;SDS011;1136;51.574;7.706;2023-08-30T02:00:34;15.03;;;13.10;;
2257;SDS011;1136;51.574;7.706;2023-08-30T02:03:09;14.70;;;13.20;;
2257;SDS011;1136;51.574;7.706;2023-08-30T02:05:37;15.43;;;13.93;;
2257;SDS011;1136;51.574;7.706;2023-08-30T02:08:15;16.33;;;14.67;;
2257;SDS011;1136;51.574;7.706;2023-08-30T02:10:52;14.50;;;13.20;;
2257;SDS011;1136;51.574;7.706;2023-08-30T02:13:25;15.00;;;13.60;;
2257;SDS011;1136;51.574;7.706;2023-08-30T02:15:56;15.00;;;13.80;;
2257;SDS011;1136;51.574;7.706;2023-08-30T02:18:25;14.63;;;13.37;;
2257;SDS011;1136;51.574;7.706;2023-08-30T02:20:53;13.73;;;12.43;;
2257;SDS011;1136;51.574;7.706;2023-08-30T02:23:22;14.27;;;13.07;;
2257;SDS011;1136;51.574;7.706;2023-08-30T02:25:49;17.13;;;15.53;;
2257;SDS011;1136;51.574;7.706;2023-08-30T02:28:16;15.40;;;14.10;;
2257;SDS011;1136;51.574;7.706;2023-08-30T02:30:42;16.50;;;15.00;;
2257;SDS011;1136;51.574;7.706;2023-08-30T02:33:09;17.20;;;15.33;;
2257;SDS011;1136;51.574;7.706;2023-08-30T02:35:36;15.73;;;14.43;;
2257;SDS011;1136;51.574;7.706;2023-08-30T02:38:03;16.17;;;14.47;;
2257;SDS011;1136;51.574;7.706;2023-08-30T02:40:31;15.90;;;14.40;;
2257;SDS011;1136;51.574;7.706;2023-08-30T02:42:58;16.93;;;14.83;;
2257;SDS011;1136;51.574;7.706;2023-08-30T02:45:25;19.30;;;17.23;;
2257;SDS011;1136;51.574;7.706;2023-08-30T02:47:54;17.60;;;16.03;;
2257;SDS011;1136;51.574;7.706;2023-08-30T02:50:22;17.50;;;15.80;;
2257;SDS011;1136;51.574;7.706;2023-08-30T02:52:49;18.33;;;16.53;;
2257;SDS011;1136;51.574;7.706;2023-08-30T02:55:16;16.87;;;15.30;;
2257;SDS011;1136;51.574;7.706;2023-08-30T02:57:44;21.43;;;16.77;;
2257;SDS011;1136;51.574;7.706;2023-08-30T03:00:12;16.17;;;14.67;;
2257;SDS011;1136;51.574;7.706;2023-08-30T03:02:40;17.00;;;15.23;;
2257;SDS011;1136;51.574;7.706;2023-08-30T03:05:06;17.27;;;15.50;;
2257;SDS011;1136;51.574;7.706;2023-08-30T03:07:33;18.30;;;16.47;;
2257;SDS011;1136;51.574;7.706;2023-08-30T03:10:03;18.50;;;16.53;;
2257;SDS011;1136;51.574;7.706;2023-08-30T03:12:30;16.27;;;14.77;;
2257;SDS011;1136;51.574;7.706;2023-08-30T03:14:56;18.67;;;16.73;;
2257;SDS011;1136;51.574;7.706;2023-08-30T03:17:23;17.97;;;14.97;;
2257;SDS011;1136;51.574;7.706;2023-08-30T03:19:51;18.67;;;17.00;;
2257;SDS011;1136;51.574;7.706;2023-08-30T03:22:19;17.80;;;16.10;;
2257;SDS011;1136;51.574;7.706;2023-08-30T03:24:46;18.03;;;16.13;;
2257;SDS011;1136;51.574;7.706;2023-08-30T03:27:13;18.93;;;16.93;;
2257;SDS011;1136;51.574;7.706;2023-08-30T03:29:40;18.70;;;16.80;;
2257;SDS011;1136;51.574;7.706;2023-08-30T03:32:07;18.07;;;16.37;;
2257;SDS011;1136;51.574;7.706;2023-08-30T03:34:33;19.03;;;16.63;;
2257;SDS011;1136;51.574;7.706;2023-08-30T03:37:01;18.03;;;16.40;;
2257;SDS011;1136;51.574;7.706;2023-08-30T03:39:29;18.47;;;16.50;;
2257;SDS011;1136;51.574;7.706;2023-08-30T03:41:56;19.60;;;17.63;;
2257;SDS011;1136;51.574;7.706;2023-08-30T03:44:22;19.43;;;17.60;;
2257;SDS011;1136;51.574;7.706;2023-08-30T03:46:49;18.33;;;16.40;;
2257;SDS011;1136;51.574;7.706;2023-08-30T03:49:15;18.43;;;16.63;;
2257;SDS011;1136;51.574;7.706;2023-08-30T03:51:42;19.23;;;17.33;;
2257;SDS011;1136;51.574;7.706;2023-08-30T03:54:09;19.40;;;17.40;;
2257;SDS011;1136;51.574;7.706;2023-08-30T03:56:39;19.03;;;17.10;;
2257;SDS011;1136;51.574;7.706;2023-08-30T03:59:06;17.90;;;16.10;;
2257;SDS011;1136;51.574;7.706;2023-08-30T04:01:34;17.67;;;15.87;;
2257;SDS011;1136;51.574;7.706;2023-08-30T04:04:02;17.97;;;16.20;;
2257;SDS011;1136;51.574;7.706;2023-08-30T04:06:29;18.47;;;16.50;;
2257;SDS011;1136;51.574;7.706;2023-08-30T04:08:55;18.23;;;16.43;;
2257;SDS011;1136;51.574;7.706;2023-08-30T04:11:22;17.60;;;15.90;;
2257;SDS011;1136;51.574;7.706;2023-08-30T04:13:49;18.93;;;17.03;;
2257;SDS011;1136;51.574;7.706;2023-08-30T04:16:16;18.50;;;15.20;;
2257;SDS011;1136;51.574;7.706;2023-08-30T04:18:42;18.37;;;16.70;;
2257;SDS011;1136;51.574;7.706;2023-08-30T04:21:09;18.93;;;16.93;;
2257;SDS011;1136;51.574;7.706;2023-08-30T04:23:36;19.27;;;17.33;;
2257;SDS011;1136;51.574;7.706;2023-08-30T04:26:02;23.93;;;21.57;;
2257;SDS011;1136;51.574;7.706;2023-08-30T04:28:29;21.83;;;18.30;;
2257;SDS011;1136;51.574;7.706;2023-08-30T04:30:56;16.90;;;15.23;;
2257;SDS011;1136;51.574;7.706;2023-08-30T04:33:23;18.57;;;16.67;;
2257;SDS011;1136;51.574;7.706;2023-08-30T04:35:51;19.40;;;17.50;;
2257;SDS011;1136;51.574;7.706;2023-08-30T04:38:18;18.40;;;16.70;;
2257;SDS011;1136;51.574;7.706;2023-08-30T04:40:46;18.20;;;16.30;;
2257;SDS011;1136;51.574;7.706;2023-08-30T04:43:13;18.27;;;16.37;;
2257;SDS011;1136;51.574;7.706;2023-08-30T04:45:40;18.97;;;16.93;;
2257;SDS011;1136;51.574;7.706;2023-08-30T04:48:08;16.90;;;15.20;;
2257;SDS011;1136;51.574;7.706;2023-08-30T04:50:45;19.87;;;17.77;;
2257;SDS011;1136;51.574;7.706;2023-08-30T04:53:12;18.77;;;16.97;;
2257;SDS011;1136;51.574;7.706;2023-08-30T04:55:38;18.83;;;16.93;;
2257;SDS011;1136;51.574;7.706;2023-08-30T04:58:05;18.87;;;16.90;;
2257;SDS011;1136;51.574;7.706;2023-08-30T05:00:33;18.23;;;16.23;;
2257;SDS011;1136;51.574;7.706;2023-08-30T05:03:01;21.20;;;18.97;;
2257;SDS011;1136;51.574;7.706;2023-08-30T05:05:27;22.87;;;20.43;;
2257;SDS011;1136;51.574;7.706;2023-08-30T05:07:54;22.47;;;20.27;;
2257;SDS011;1136;51.574;7.706;2023-08-30T05:10:21;22.30;;;20.10;;
2257;SDS011;1136;51.574;7.706;2023-08-30T05:12:47;23.77;;;21.07;;
2257;SDS011;1136;51.574;7.706;2023-08-30T05:15:18;22.07;;;19.97;;
2257;SDS011;1136;51.574;7.706;2023-08-30T05:17:45;19.33;;;17.23;;
2257;SDS011;1136;51.574;7.706;2023-08-30T05:20:12;20.63;;;18.50;;
2257;SDS011;1136;51.574;7.706;2023-08-30T05:22:39;22.90;;;19.60;;
2257;SDS011;1136;51.574;7.706;2023-08-30T05:25:06;20.40;;;17.90;;
2257;SDS011;1136;51.574;7.706;2023-08-30T05:27:33;20.50;;;18.00;;
2257;SDS011;1136;51.574;7.706;2023-08-30T05:30:00;18.13;;;16.33;;
2257;SDS011;1136;51.574;7.706;2023-08-30T05:32:27;20.23;;;18.23;;
2257;SDS011;1136;51.574;7.706;2023-08-30T05:34:54;18.67;;;16.73;;
2257;SDS011;1136;51.574;7.706;2023-08-30T05:37:20;18.10;;;16.40;;
2257;SDS011;1136;51.574;7.706;2023-08-30T05:39:48;20.10;;;18.13;;
2257;SDS011;1136;51.574;7.706;2023-08-30T05:42:14;21.97;;;19.90;;
2257;SDS011;1136;51.574;7.706;2023-08-30T05:44:41;22.87;;;20.30;;
2257;SDS011;1136;51.574;7.706;2023-08-30T05:47:09;19.70;;;17.77;;
2257;SDS011;1136;51.574;7.706;2023-08-30T05:49:41;20.20;;;18.20;;
2257;SDS011;1136;51.574;7.706;2023-08-30T05:52:07;20.83;;;18.60;;
2257;SDS011;1136;51.574;7.706;2023-08-30T05:54:35;22.50;;;20.20;;
2257;SDS011;1136;51.574;7.706;2023-08-30T05:57:02;20.57;;;18.40;;
2257;SDS011;1136;51.574;7.706;2023-08-30T05:59:29;22.60;;;20.50;;
2257;SDS011;1136;51.574;7.706;2023-08-30T06:01:56;22.30;;;20.03;;
2257;SDS011;1136;51.574;7.706;2023-08-30T06:04:22;23.90;;;21.33;;
2257;SDS011;1136;51.574;7.706;2023-08-30T06:06:49;23.20;;;20.70;;
2257;SDS011;1136;51.574;7.706;2023-08-30T06:09:16;23.37;;;20.80;;
2257;SDS011;1136;51.574;7.706;2023-08-30T06:11:44;21.77;;;19.73;;
2257;SDS011;1136;51.574;7.706;2023-08-30T06:14:10;21.20;;;18.80;;
2257;SDS011;1136;51.574;7.706;2023-08-30T06:16:37;23.33;;;20.90;;
2257;SDS011;1136;51.574;7.706;2023-08-30T06:19:04;23.53;;;21.23;;
2257;SDS011;1136;51.574;7.706;2023-08-30T06:21:31;22.73;;;20.47;;
2257;SDS011;1136;51.574;7.706;2023-08-30T06:24:00;22.63;;;20.57;;
2257;SDS011;1136;51.574;7.706;2023-08-30T06:26:27;22.13;;;19.50;;
2257;SDS011;1136;51.574;7.706;2023-08-30T06:28:53;23.00;;;20.63;;
2257;SDS011;1136;51.574;7.706;2023-08-30T06:31:30;23.57;;;21.27;;
2257;SDS011;1136;51.574;7.706;2023-08-30T06:33:59;23.63;;;21.23;;
2257;SDS011;1136;51.574;7.706;2023-08-30T06:36:25;23.67;;;20.67;;
2257;SDS011;1136;51.574;7.706;2023-08-30T06:38:52;23.27;;;20.90;;
2257;SDS011;1136;51.574;7.706;2023-08-30T06:41:19;23.80;;;19.77;;
2257;SDS011;1136;51.574;7.706;2023-08-30T06:43:46;21.50;;;19.37;;
2257;SDS011;1136;51.574;7.706;2023-08-30T06:46:12;24.77;;;22.27;;
2257;SDS011;1136;51.574;7.706;2023-08-30T06:48:39;23.43;;;21.00;;
2257;SDS011;1136;51.574;7.706;2023-08-30T06:51:06;26.60;;;23.13;;
2257;SDS011;1136;51.574;7.706;2023-08-30T06:53:33;27.57;;;22.33;;
2257;SDS011;1136;51.574;7.706;2023-08-30T06:55:59;29.77;;;22.43;;
2257;SDS011;1136;51.574;7.706;2023-08-30T06:58:27;25.43;;;22.67;;
2257;SDS011;1136;51.574;7.706;2023-08-30T07:00:54;26.70;;;21.00;;
2257;SDS011;1136;51.574;7.706;2023-08-30T07:03:20;23.20;;;19.70;;
2257;SDS011;1136;51.574;7.706;2023-08-30T07:05:47;23.73;;;21.30;;
2257;SDS011;1136;51.574;7.706;2023-08-30T07:08:14;26.83;;;24.07;;
2257;SDS011;1136;51.574;7.706;2023-08-30T07:10:41;25.50;;;22.90;;
2257;SDS011;1136;51.574;7.706;2023-08-30T07:13:08;29.20;;;26.30;;
2257;SDS011;1136;51.574;7.706;2023-08-30T07:15:41;30.17;;;27.07;;
2257;SDS011;1136;51.574;7.706;2023-08-30T07:18:08;26.60;;;23.80;;
2257;SDS011;1136;51.574;7.706;2023-08-30T07:20:36;30.13;;;27.03;;
2257;SDS011;1136;51.574;7.706;2023-08-30T07:23:05;28.77;;;25.90;;
2257;SDS011;1136;51.574;7.706;2023-08-30T07:25:36;29.60;;;26.70;;
2257;SDS011;1136;51.574;7.706;2023-08-30T07:28:04;29.13;;;26.07;;
2257;SDS011;1136;51.574;7.706;2023-08-30T07:30:31;27.57;;;24.63;;
2257;SDS011;1136;51.574;7.706;2023-08-30T07:32:58;28.00;;;24.70;;
2257;SDS011;1136;51.574;7.706;2023-08-30T07:35:25;27.57;;;24.87;;
2257;SDS011;1136;51.574;7.706;2023-08-30T07:37:52;24.50;;;22.00;;
2257;SDS011;1136;51.574;7.706;2023-08-30T07:40:19;24.90;;;22.47;;
2257;SDS011;1136;51.574;7.706;2023-08-30T07:42:47;26.33;;;22.30;;
2257;SDS011;1136;51.574;7.706;2023-08-30T07:45:13;25.90;;;23.27;;
2257;SDS011;1136;51.574;7.706;2023-08-30T07:47:40;25.67;;;22.60;;
2257;SDS011;1136;51.574;7.706;2023-08-30T07:50:07;25.03;;;22.40;;
2257;SDS011;1136;51.574;7.706;2023-08-30T07:52:34;23.00;;;20.77;;
2257;SDS011;1136;51.574;7.706;2023-08-30T07:55:11;24.33;;;19.90;;
2257;SDS011;1136;51.574;7.706;2023-08-30T07:57:38;21.90;;;19.60;;
2257;SDS011;1136;51.574;7.706;2023-08-30T08:00:05;22.23;;;18.23;;
2257;SDS011;1136;51.574;7.706;2023-08-30T08:02:32;20.73;;;18.57;;
2257;SDS011;1136;51.574;7.706;2023-08-30T08:04:59;19.40;;;17.60;;
2257;SDS011;1136;51.574;7.706;2023-08-30T08:07:25;19.00;;;17.10;;
2257;SDS011;1136;51.574;7.706;2023-08-30T08:09:54;17.00;;;15.40;;
2257;SDS011;1136;51.574;7.706;2023-08-30T08:12:21;17.03;;;15.17;;
2257;SDS011;1136;51.574;7.706;2023-08-30T08:14:48;16.50;;;14.80;;
2257;SDS011;1136;51.574;7.706;2023-08-30T08:17:15;14.37;;;12.90;;
2257;SDS011;1136;51.574;7.706;2023-08-30T08:19:41;12.57;;;11.37;;
2257;SDS011;1136;51.574;7.706;2023-08-30T08:22:10;12.47;;;11.23;;
2257;SDS011;1136;51.574;7.706;2023-08-30T08:24:36;10.93;;;9.93;;
2257;SDS011;1136;51.574;7.706;2023-08-30T08:27:03;12.13;;;10.87;;
2257;SDS011;1136;51.574;7.706;2023-08-30T08:29:32;11.07;;;10.07;;
2257;SDS011;1136;51.574;7.706;2023-08-30T08:31:58;11.60;;;10.50;;
2257;SDS011;1136;51.574;7.706;2023-08-30T08:34:25;10.77;;;9.77;;
2257;SDS011;1136;51.574;7.706;2023-08-30T08:36:51;10.00;;;9.10;;
2257;SDS011;1136;51.574;7.706;2023-08-30T08:39:18;11.53;;;8.40;;
2257;SDS011;1136;51.574;7.706;2023-08-30T08:41:45;9.47;;;8.40;;
2257;SDS011;1136;51.574;7.706;2023-08-30T08:44:12;11.80;;;8.33;;
2257;SDS011;1136;51.574;7.706;2023-08-30T08:46:40;9.77;;;8.27;;
2257;SDS011;1136;51.574;7.706;2023-08-30T08:49:14;8.90;;;8.00;;
2257;SDS011;1136;51.574;7.706;2023-08-30T08:51:42;8.00;;;7.20;;
2257;SDS011;1136;51.574;7.706;2023-08-30T08:54:09;8.30;;;7.60;;
2257;SDS011;1136;51.574;7.706;2023-08-30T08:56:37;9.33;;;8.33;;
2257;SDS011;1136;51.574;7.706;2023-08-30T08:59:05;9.60;;;8.70;;
2257;SDS011;1136;51.574;7.706;2023-08-30T09:01:33;8.67;;;7.90;;
2257;SDS011;1136;51.574;7.706;2023-08-30T09:04:08;16.70;;;9.30;;
2257;SDS011;1136;51.574;7.706;2023-08-30T09:06:37;10.73;;;9.20;;
2257;SDS011;1136;51.574;7.706;2023-08-30T09:09:06;8.70;;;7.90;;
2257;SDS011;1136;51.574;7.706;2023-08-30T09:11:34;9.03;;;8.23;;
2257;SDS011;1136;51.574;7.706;2023-08-30T09:14:17;6.90;;;6.40;;
2257;SDS011;1136;51.574;7.706;2023-08-30T09:16:57;13.10;;;6.27;;
2257;SDS011;1136;51.574;7.706;2023-08-30T09:19:24;5.90;;;5.10;;
2257;SDS011;1136;51.574;7.706;2023-08-30T09:21:54;8.30;;;5.60;;
2257;SDS011;1136;51.574;7.706;2023-08-30T09:24:22;6.13;;;5.50;;
2257;SDS011;1136;51.574;7.706;2023-08-30T09:26:49;7.87;;;6.13;;
2257;SDS011;1136;51.574;7.706;2023-08-30T09:29:18;6.63;;;6.00;;
2257;SDS011;1136;51.574;7.706;2023-08-30T09:31:45;6.53;;;6.00;;
2257;SDS011;1136;51.574;7.706;2023-08-30T09:34:12;7.00;;;6.13;;
2257;SDS011;1136;51.574;7.706;2023-08-30T09:36:42;5.40;;;5.00;;
2257;SDS011;1136;51.574;7.706;2023-08-30T09:39:10;5.90;;;5.40;;
2257;SDS011;1136;51.574;7.706;2023-08-30T09:41:42;6.37;;;5.77;;
2257;SDS011;1136;51.574;7.706;2023-08-30T09:44:10;5.43;;;5.03;;
2257;SDS011;1136;51.574;7.706;2023-08-30T09:49:21;7.00;;;5.03;;
2257;SDS011;1136;51.574;7.706;2023-08-30T09:51:50;7.87;;;5.97;;
2257;SDS011;1136;51.574;7.706;2023-08-30T09:54:22;5.43;;;4.90;;
2257;SDS011;1136;51.574;7.706;2023-08-30T09:56:53;6.00;;;5.00;;
2257;SDS011;1136;51.574;7.706;2023-08-30T09:59:22;5.33;;;4.83;;
2257;SDS011;1136;51.574;7.706;2023-08-30T10:01:49;6.63;;;5.90;;
2257;SDS011;1136;51.574;7.706;2023-08-30T10:04:17;6.33;;;5.83;;
2257;SDS011;1136;51.574;7.706;2023-08-30T10:06:45;7.83;;;4.80;;
2257;SDS011;1136;51.574;7.706;2023-08-30T10:09:13;5.73;;;5.23;;
2257;SDS011;1136;51.574;7.706;2023-08-30T10:12:01;5.60;;;4.80;;
2257;SDS011;1136;51.574;7.706;2023-08-30T10:14:28;4.30;;;4.00;;
2257;SDS011;1136;51.574;7.706;2023-08-30T10:17:02;4.87;;;4.47;;
2257;SDS011;1136;51.574;7.706;2023-08-30T10:19:30;4.47;;;4.07;;
2257;SDS011;1136;51.574;7.706;2023-08-30T10:24:34;6.27;;;4.70;;
2257;SDS011;1136;51.574;7.706;2023-08-30T10:27:25;4.30;;;4.00;;
2257;SDS011;1136;51.574;7.706;2023-08-30T10:29:52;8.00;;;4.23;;
2257;SDS011;1136;51.574;7.706;2023-08-30T10:32:20;5.00;;;4.50;;
2257;SDS011;1136;51.574;7.706;2023-08-30T10:34:48;9.17;;;4.20;;
2257;SDS011;1136;51.574;7.706;2023-08-30T10:37:16;6.40;;;4.20;;
2257;SDS011;1136;51.574;7.706;2023-08-30T10:39:49;7.00;;;3.63;;
2257;SDS011;1136;51.574;7.706;2023-08-30T10:42:16;6.20;;;3.87;;
2257;SDS011;1136;51.574;7.706;2023-08-30T10:44:50;6.90;;;4.13;;
2257;SDS011;1136;51.574;7.706;2023-08-30T10:47:23;5.03;;;4.27;;
2257;SDS011;1136;51.574;7.706;2023-08-30T10:49:53;7.20;;;5.10;;
2257;SDS011;1136;51.574;7.706;2023-08-30T10:52:26;4.83;;;4.40;;
2257;SDS011;1136;51.574;7.706;2023-08-30T10:55:15;5.23;;;4.27;;
2257;SDS011;1136;51.574;7.706;2023-08-30T10:57:43;4.87;;;3.80;;
2257;SDS011;1136;51.574;7.706;2023-08-30T11:02:45;3.90;;;3.60;;
2257;SDS011;1136;51.574;7.706;2023-08-30T11:05:15;6.60;;;4.20;;
2257;SDS011;1136;51.574;7.706;2023-08-30T11:07:43;4.87;;;4.20;;
2257;SDS011;1136;51.574;7.706;2023-08-30T11:10:11;5.73;;;5.23;;
2257;SDS011;1136;51.574;7.706;2023-08-30T11:12:42;5.73;;;5.20;;
2257;SDS011;1136;51.574;7.706;2023-08-30T11:15:11;7.20;;;6.40;;
2257;SDS011;1136;51.574;7.706;2023-08-30T11:17:41;8.13;;;7.47;;
2257;SDS011;1136;51.574;7.706;2023-08-30T11:20:09;10.97;;;9.27;;
2257;SDS011;1136;51.574;7.706;2023-08-30T11:22:42;9.53;;;8.63;;
2257;SDS011;1136;51.574;7.706;2023-08-30T11:25:11;10.30;;;9.37;;
2257;SDS011;1136;51.574;7.706;2023-08-30T11:27:38;10.30;;;9.07;;
2257;SDS011;1136;51.574;7.706;2023-08-30T11:30:06;13.17;;;10.00;;
2257;SDS011;1136;51.574;7.706;2023-08-30T11:32:35;12.20;;;10.63;;
2257;SDS011;1136;51.574;7.706;2023-08-30T11:35:02;12.23;;;11.13;;
2257;SDS011;1136;51.574;7.706;2023-08-30T11:37:29;14.10;;;12.77;;
2257;SDS011;1136;51.574;7.706;2023-08-30T11:39:57;13.30;;;12.10;;
2257;SDS011;1136;51.574;7.706;2023-08-30T11:42:24;13.90;;;12.70;;
2257;SDS011;1136;51.574;7.706;2023-08-30T11:44:52;13.90;;;12.70;;
2257;SDS011;1136;51.574;7.706;2023-08-30T11:47:22;15.00;;;13.60;;
2257;SDS011;1136;51.574;7.706;2023-08-30T11:49:50;13.80;;;12.50;;
2257;SDS011;1136;51.574;7.706;2023-08-30T11:52:18;16.07;;;14.70;;
2257;SDS011;1136;51.574;7.706;2023-08-30T11:54:47;15.10;;;13.80;;
2257;SDS011;1136;51.574;7.706;2023-08-30T11:57:14;17.43;;;15.93;;
2257;SDS011;1136;51.574;7.706;2023-08-30T11:59:41;16.67;;;15.20;;
2257;SDS011;1136;51.574;7.706;2023-08-30T12:02:11;17.83;;;16.10;;
2257;SDS011;1136;51.574;7.706;2023-08-30T12:04:39;17.90;;;16.27;;
2257;SDS011;1136;51.574;7.706;2023-08-30T12:07:10;17.30;;;15.90;;
2257;SDS011;1136;51.574;7.706;2023-08-30T12:09:37;18.90;;;17.30;;
2257;SDS011;1136;51.574;7.706;2023-08-30T12:12:04;18.60;;;17.00;;
2257;SDS011;1136;51.574;7.706;2023-08-30T12:14:40;18.27;;;16.73;;
2257;SDS011;1136;51.574;7.706;2023-08-30T12:17:08;16.00;;;14.70;;
2257;SDS011;1136;51.574;7.706;2023-08-30T12:19:35;15.97;;;14.40;;
2257;SDS011;1136;51.574;7.706;2023-08-30T12:22:05;15.13;;;12.90;;
2257;SDS011;1136;51.574;7.706;2023-08-30T12:24:43;13.23;;;12.03;;
2257;SDS011;1136;51.574;7.706;2023-08-30T12:27:11;13.43;;;12.23;;
2257;SDS011;1136;51.574;7.706;2023-08-30T12:29:38;13.43;;;12.30;;
2257;SDS011;1136;51.574;7.706;2023-08-30T12:32:06;13.07;;;11.80;;
2257;SDS011;1136;51.574;7.706;2023-08-30T12:34:34;13.23;;;12.13;;
2257;SDS011;1136;51.574;7.706;2023-08-30T12:37:01;14.27;;;12.87;;
2257;SDS011;1136;51.574;7.706;2023-08-30T12:39:31;13.97;;;12.77;;
2257;SDS011;1136;51.574;7.706;2023-08-30T12:41:57;13.03;;;11.90;;
2257;SDS011;1136;51.574;7.706;2023-08-30T12:44:24;12.17;;;11.07;;
2257;SDS011;1136;51.574;7.706;2023-08-30T12:46:51;11.30;;;10.30;;
2257;SDS011;1136;51.574;7.706;2023-08-30T12:49:18;12.20;;;11.20;;
2257;SDS011;1136;51.574;7.706;2023-08-30T12:51:44;11.90;;;10.80;;
2257;SDS011;1136;51.574;7.706;2023-08-30T12:54:11;13.30;;;11.83;;
2257;SDS011;1136;51.574;7.706;2023-08-30T12:56:38;12.00;;;10.90;;
2257;SDS011;1136;51.574;7.706;2023-08-30T12:59:04;12.27;;;10.60;;
2257;SDS011;1136;51.574;7.706;2023-08-30T13:01:31;9.53;;;8.83;;
2257;SDS011;1136;51.574;7.706;2023-08-30T13:03:58;6.53;;;6.03;;
2257;SDS011;1136;51.574;7.706;2023-08-30T13:06:24;5.00;;;4.60;;
2257;SDS011;1136;51.574;7.706;2023-08-30T13:08:51;5.70;;;5.07;;
2257;SDS011;1136;51.574;7.706;2023-08-30T13:11:17;6.57;;;6.07;;
2257;SDS011;1136;51.574;7.706;2023-08-30T13:13:44;5.67;;;5.27;;
2257;SDS011;1136;51.574;7.706;2023-08-30T13:16:11;6.23;;;5.73;;
2257;SDS011;1136;51.574;7.706;2023-08-30T13:18:37;5.53;;;5.13;;
2257;SDS011;1136;51.574;7.706;2023-08-30T13:21:04;6.00;;;5.43;;
2257;SDS011;1136;51.574;7.706;2023-08-30T13:23:31;8.37;;;5.67;;
2257;SDS011;1136;51.574;7.706;2023-08-30T13:25:57;7.73;;;5.43;;
2257;SDS011;1136;51.574;7.706;2023-08-30T13:28:24;5.40;;;5.00;;
2257;SDS011;1136;51.574;7.706;2023-08-30T13:34:38;5.00;;;4.60;;
2257;SDS011;1136;51.574;7.706;2023-08-30T13:37:05;5.53;;;5.13;;
2257;SDS011;1136;51.574;7.706;2023-08-30T13:39:32;5.57;;;5.07;;
2257;SDS011;1136;51.574;7.706;2023-08-30T13:41:58;7.87;;;7.17;;
2257;SDS011;1136;51.574;7.706;2023-08-30T13:44:25;6.40;;;5.80;;
2257;SDS011;1136;51.574;7.706;2023-08-30T13:46:52;5.83;;;5.43;;
2257;SDS011;1136;51.574;7.706;2023-08-30T13:49:19;5.83;;;5.43;;
2257;SDS011;1136;51.574;7.706;2023-08-30T13:51:46;4.93;;;4.63;;
2257;SDS011;1136;51.574;7.706;2023-08-30T13:54:13;3.83;;;3.53;;
2257;SDS011;1136;51.574;7.706;2023-08-30T13:56:40;3.80;;;3.50;;
2257;SDS011;1136;51.574;7.706;2023-08-30T13:59:07;3.80;;;3.53;;
2257;SDS011;1136;51.574;7.706;2023-08-30T14:01:34;4.07;;;3.73;;
2257;SDS011;1136;51.574;7.706;2023-08-30T14:04:04;3.80;;;3.47;;
2257;SDS011;1136;51.574;7.706;2023-08-30T14:06:31;3.47;;;3.27;;
2257;SDS011;1136;51.574;7.706;2023-08-30T14:08:58;3.67;;;3.37;;
2257;SDS011;1136;51.574;7.706;2023-08-30T14:11:25;3.77;;;3.57;;
2257;SDS011;1136;51.574;7.706;2023-08-30T14:13:52;3.80;;;3.50;;
2257;SDS011;1136;51.574;7.706;2023-08-30T14:16:21;4.30;;;4.00;;
2257;SDS011;1136;51.574;7.706;2023-08-30T14:18:47;3.73;;;3.53;;
2257;SDS011;1136;51.574;7.706;2023-08-30T14:21:14;3.67;;;3.47;;
2257;SDS011;1136;51.574;7.706;2023-08-30T14:23:40;3.47;;;3.00;;
2257;SDS011;1136;51.574;7.706;2023-08-30T14:26:07;3.30;;;3.10;;
2257;SDS011;1136;51.574;7.706;2023-08-30T14:28:39;3.33;;;2.90;;
2257;SDS011;1136;51.574;7.706;2023-08-30T14:31:07;3.70;;;3.40;;
2257;SDS011;1136;51.574;7.706;2023-08-30T14:33:37;3.90;;;3.53;;
2257;SDS011;1136;51.574;7.706;2023-08-30T14:36:10;4.20;;;3.90;;
2257;SDS011;1136;51.574;7.706;2023-08-30T14:38:37;4.53;;;4.20;;
2257;SDS011;1136;51.574;7.706;2023-08-30T14:41:05;4.03;;;3.80;;
2257;SDS011;1136;51.574;7.706;2023-08-30T14:43:32;5.17;;;4.67;;
2257;SDS011;1136;51.574;7.706;2023-08-30T14:45:59;4.90;;;4.13;;
2257;SDS011;1136;51.574;7.706;2023-08-30T14:48:46;3.73;;;3.53;;
2257;SDS011;1136;51.574;7.706;2023-08-30T14:51:12;9.47;;;3.90;;
2257;SDS011;1136;51.574;7.706;2023-08-30T14:53:39;3.80;;;3.60;;
2257;SDS011;1136;51.574;7.706;2023-08-30T14:56:06;4.47;;;4.10;;
2257;SDS011;1136;51.574;7.706;2023-08-30T14:58:36;4.00;;;3.80;;
2257;SDS011;1136;51.574;7.706;2023-08-30T15:01:04;3.43;;;3.13;;
2257;SDS011;1136;51.574;7.706;2023-08-30T15:03:31;3.57;;;3.37;;
2257;SDS011;1136;51.574;7.706;2023-08-30T15:05:58;4.00;;;3.70;;
2257;SDS011;1136;51.574;7.706;2023-08-30T15:08:25;3.40;;;3.20;;
2257;SDS011;1136;51.574;7.706;2023-08-30T15:10:51;5.00;;;3.57;;
2257;SDS011;1136;51.574;7.706;2023-08-30T15:13:19;3.70;;;3.50;;
2257;SDS011;1136;51.574;7.706;2023-08-30T15:15:46;4.07;;;3.70;;
2257;SDS011;1136;51.574;7.706;2023-08-30T15:18:13;3.97;;;3.67;;